CCA873 ZBAD-ESSA
Flight info
| Callsign | CCA873 |
|---|---|
| Flight time | N/A |
| Altitude | 38100 |
| Route | IDKEX6K IDKEX B339 POLHO Y520 SERNA/K0907F400 R497 BD W176 SUKOR A817 RO T631 NWK M59 UTITA L261 KOMEK/N0486F400 DCT RUNGA N872 XILAN |
| Aircraft | A359/H-SDE2E3GHIJ3J4J5LM1ORWXY/LB1D1 |
Departure
| Time | 2026-04-12 10:59 |
|---|---|
| Airport | Beijing Daxing International Airport (ZBAD) |
Arrival
| Time | N/A |
|---|---|
| Airport | Stockholm-Arlanda Airport (ESSA) |
| Time | Latitude | Longitude | Altitude | Speed | Heading |
|---|---|---|---|---|---|
| 2026-04-12 10:38 | 39.50752 | 116.40355 | 91 ft | 0 kts | 98° |
| 2026-04-12 10:48 | 39.50754 | 116.40336 | 91 ft | 3 kts | 95° |
| 2026-04-12 10:48 | 39.50755 | 116.40309 | 91 ft | 3 kts | 90° |
| 2026-04-12 10:49 | 39.50755 | 116.40283 | 91 ft | 3 kts | 83° |
| 2026-04-12 10:49 | 39.50751 | 116.40258 | 91 ft | 3 kts | 70° |
| 2026-04-12 10:49 | 39.50743 | 116.40237 | 91 ft | 3 kts | 38° |
| 2026-04-12 10:49 | 39.50732 | 116.40229 | 91 ft | 1 kts | 354° |
| 2026-04-12 10:50 | 39.50731 | 116.40229 | 91 ft | 0 kts | 353° |
| 2026-04-12 10:50 | 39.50731 | 116.40230 | 91 ft | 0 kts | 353° |
| 2026-04-12 10:50 | 39.50731 | 116.40231 | 91 ft | 0 kts | 353° |
| 2026-04-12 10:53 | 39.50731 | 116.40230 | 91 ft | 0 kts | 353° |
| 2026-04-12 10:54 | 39.50750 | 116.40228 | 91 ft | 6 kts | 353° |
| 2026-04-12 10:54 | 39.50808 | 116.40216 | 91 ft | 11 kts | 345° |
| 2026-04-12 10:54 | 39.50850 | 116.40144 | 91 ft | 11 kts | 285° |
| 2026-04-12 10:54 | 39.50897 | 116.40090 | 92 ft | 10 kts | 355° |
| 2026-04-12 10:55 | 39.50989 | 116.40078 | 92 ft | 16 kts | 354° |
| 2026-04-12 10:55 | 39.51119 | 116.40059 | 92 ft | 21 kts | 353° |
| 2026-04-12 10:55 | 39.51279 | 116.40035 | 92 ft | 24 kts | 353° |
| 2026-04-12 10:55 | 39.51445 | 116.40009 | 92 ft | 24 kts | 352° |
| 2026-04-12 10:56 | 39.51615 | 116.39978 | 92 ft | 25 kts | 352° |
| 2026-04-12 10:56 | 39.51739 | 116.39958 | 92 ft | 12 kts | 353° |
| 2026-04-12 10:56 | 39.51805 | 116.39915 | 92 ft | 10 kts | 296° |
| 2026-04-12 10:56 | 39.51802 | 116.39835 | 94 ft | 9 kts | 262° |
| 2026-04-12 10:57 | 39.51794 | 116.39764 | 97 ft | 7 kts | 262° |
| 2026-04-12 10:57 | 39.51788 | 116.39700 | 102 ft | 7 kts | 262° |
| 2026-04-12 10:57 | 39.51763 | 116.39632 | 103 ft | 10 kts | 214° |
| 2026-04-12 10:57 | 39.51693 | 116.39633 | 103 ft | 13 kts | 172° |
| 2026-04-12 10:58 | 39.51524 | 116.39662 | 103 ft | 43 kts | 173° |
| 2026-04-12 10:58 | 39.51004 | 116.39741 | 100 ft | 105 kts | 173° |
| 2026-04-12 10:58 | 39.50101 | 116.39882 | 105 ft | 155 kts | 174° |
| 2026-04-12 10:58 | 39.49000 | 116.40038 | 613 ft | 156 kts | 174° |
| 2026-04-12 10:59 | 39.47914 | 116.40187 | 1173 ft | 159 kts | 175° |
| 2026-04-12 10:59 | 39.46792 | 116.40327 | 1700 ft | 164 kts | 175° |
| 2026-04-12 10:59 | 39.45618 | 116.40451 | 2011 ft | 176 kts | 176° |
| 2026-04-12 10:59 | 39.44349 | 116.40560 | 2251 ft | 189 kts | 177° |
| 2026-04-12 11:00 | 39.42994 | 116.40665 | 2538 ft | 201 kts | 177° |
| 2026-04-12 11:00 | 39.41651 | 116.41175 | 2811 ft | 211 kts | 146° |
| 2026-04-12 11:00 | 39.40796 | 116.42676 | 3286 ft | 211 kts | 107° |
| 2026-04-12 11:00 | 39.40870 | 116.44562 | 3666 ft | 217 kts | 66° |
| 2026-04-12 11:01 | 39.41909 | 116.45949 | 3997 ft | 224 kts | 24° |
| 2026-04-12 11:01 | 39.43491 | 116.46361 | 4132 ft | 242 kts | 4° |
| 2026-04-12 11:01 | 39.45236 | 116.46501 | 4324 ft | 260 kts | 2° |
| 2026-04-12 11:01 | 39.47097 | 116.46597 | 4604 ft | 272 kts | 1° |
| 2026-04-12 11:02 | 39.48985 | 116.46648 | 5231 ft | 271 kts | 0° |
| 2026-04-12 11:02 | 39.50870 | 116.46673 | 5776 ft | 273 kts | 1° |
| 2026-04-12 11:02 | 39.52767 | 116.46763 | 6216 ft | 279 kts | 2° |
| 2026-04-12 11:02 | 39.54706 | 116.46936 | 6732 ft | 281 kts | 4° |
| 2026-04-12 11:03 | 39.56668 | 116.47170 | 7207 ft | 285 kts | 5° |
| 2026-04-12 11:03 | 39.58651 | 116.47360 | 7708 ft | 287 kts | 3° |
| 2026-04-12 11:03 | 39.60657 | 116.47508 | 8208 ft | 289 kts | 3° |
| 2026-04-12 11:03 | 39.62679 | 116.47655 | 8700 ft | 292 kts | 3° |
| 2026-04-12 11:04 | 39.64714 | 116.47806 | 9184 ft | 294 kts | 3° |
| 2026-04-12 11:04 | 39.66774 | 116.47961 | 9662 ft | 297 kts | 3° |
| 2026-04-12 11:04 | 39.68843 | 116.48119 | 10132 ft | 299 kts | 3° |
| 2026-04-12 11:04 | 39.70926 | 116.48279 | 10404 ft | 309 kts | 3° |
| 2026-04-12 11:05 | 39.73112 | 116.48447 | 10605 ft | 320 kts | 3° |
| 2026-04-12 11:05 | 39.75374 | 116.48622 | 10805 ft | 331 kts | 3° |
| 2026-04-12 11:05 | 39.77705 | 116.48802 | 10999 ft | 341 kts | 3° |
| 2026-04-12 11:05 | 39.80116 | 116.48988 | 11186 ft | 351 kts | 3° |
| 2026-04-12 11:06 | 39.82584 | 116.49180 | 11359 ft | 360 kts | 3° |
| 2026-04-12 11:06 | 39.85116 | 116.49376 | 11523 ft | 369 kts | 3° |
| 2026-04-12 11:06 | 39.87703 | 116.49577 | 11683 ft | 376 kts | 3° |
| 2026-04-12 11:06 | 39.90344 | 116.49782 | 11833 ft | 384 kts | 3° |
| 2026-04-12 11:07 | 39.92917 | 116.49982 | 12003 ft | 389 kts | 3° |
| 2026-04-12 11:07 | 39.95633 | 116.50194 | 12264 ft | 392 kts | 3° |
| 2026-04-12 11:07 | 39.98369 | 116.50407 | 12536 ft | 394 kts | 3° |
| 2026-04-12 11:07 | 40.01114 | 116.50621 | 12802 ft | 396 kts | 3° |
| 2026-04-12 11:08 | 40.03762 | 116.50827 | 13052 ft | 398 kts | 3° |
| 2026-04-12 11:08 | 40.06531 | 116.51043 | 13306 ft | 400 kts | 3° |
| 2026-04-12 11:08 | 40.09312 | 116.51261 | 13552 ft | 401 kts | 3° |
| 2026-04-12 11:08 | 40.12077 | 116.51477 | 13790 ft | 403 kts | 3° |
| 2026-04-12 11:09 | 40.14872 | 116.51696 | 14026 ft | 405 kts | 3° |
| 2026-04-12 11:09 | 40.17695 | 116.51917 | 14257 ft | 406 kts | 3° |
| 2026-04-12 11:09 | 40.20520 | 116.52138 | 14485 ft | 408 kts | 3° |
| 2026-04-12 11:09 | 40.23364 | 116.52361 | 14710 ft | 409 kts | 3° |
| 2026-04-12 11:10 | 40.26203 | 116.52584 | 14930 ft | 411 kts | 3° |
| 2026-04-12 11:10 | 40.29075 | 116.52810 | 15148 ft | 412 kts | 3° |
| 2026-04-12 11:10 | 40.31941 | 116.53035 | 15362 ft | 414 kts | 3° |
| 2026-04-12 11:10 | 40.34829 | 116.53262 | 15574 ft | 415 kts | 3° |
| 2026-04-12 11:11 | 40.37721 | 116.53490 | 15781 ft | 417 kts | 3° |
| 2026-04-12 11:11 | 40.40620 | 116.53719 | 15986 ft | 418 kts | 3° |
| 2026-04-12 11:11 | 40.43420 | 116.53940 | 16178 ft | 420 kts | 3° |
| 2026-04-12 11:11 | 40.46306 | 116.54167 | 16375 ft | 421 kts | 3° |
| 2026-04-12 11:12 | 40.49240 | 116.54399 | 16565 ft | 423 kts | 3° |
| 2026-04-12 11:12 | 40.52181 | 116.54632 | 16750 ft | 424 kts | 3° |
| 2026-04-12 11:12 | 40.55137 | 116.54867 | 16931 ft | 425 kts | 3° |
| 2026-04-12 11:12 | 40.58102 | 116.55102 | 17110 ft | 427 kts | 3° |
| 2026-04-12 11:13 | 40.61079 | 116.55338 | 17280 ft | 428 kts | 3° |
| 2026-04-12 11:13 | 40.64060 | 116.55574 | 17448 ft | 429 kts | 3° |
| 2026-04-12 11:13 | 40.67011 | 116.55809 | 17610 ft | 430 kts | 3° |
| 2026-04-12 11:13 | 40.70012 | 116.56048 | 17767 ft | 432 kts | 3° |
| 2026-04-12 11:14 | 40.73012 | 116.56287 | 17921 ft | 433 kts | 3° |
| 2026-04-12 11:14 | 40.76028 | 116.56526 | 18073 ft | 434 kts | 3° |
| 2026-04-12 11:14 | 40.79053 | 116.56588 | 18220 ft | 435 kts | 359° |
| 2026-04-12 11:14 | 40.82082 | 116.56429 | 18363 ft | 436 kts | 356° |
| 2026-04-12 11:15 | 40.85115 | 116.56152 | 18507 ft | 437 kts | 355° |
| 2026-04-12 11:15 | 40.88155 | 116.55827 | 18647 ft | 438 kts | 355° |
| 2026-04-12 11:15 | 40.91197 | 116.55494 | 18780 ft | 439 kts | 355° |
| 2026-04-12 11:15 | 40.94245 | 116.55172 | 18914 ft | 440 kts | 355° |
| 2026-04-12 11:16 | 40.97264 | 116.54866 | 19042 ft | 441 kts | 355° |
| 2026-04-12 11:16 | 41.00329 | 116.54569 | 19167 ft | 442 kts | 355° |
| 2026-04-12 11:16 | 41.03406 | 116.54278 | 19288 ft | 443 kts | 355° |
| 2026-04-12 11:16 | 41.06483 | 116.53991 | 19406 ft | 444 kts | 355° |
| 2026-04-12 11:17 | 41.09437 | 116.53717 | 19516 ft | 445 kts | 355° |
| 2026-04-12 11:17 | 41.12541 | 116.53429 | 19631 ft | 446 kts | 355° |
| 2026-04-12 11:17 | 41.15635 | 116.53140 | 19736 ft | 447 kts | 355° |
| 2026-04-12 11:17 | 41.18747 | 116.52848 | 19842 ft | 447 kts | 355° |
| 2026-04-12 11:18 | 41.21844 | 116.52308 | 19935 ft | 448 kts | 348° |
| 2026-04-12 11:18 | 41.24812 | 116.51227 | 20030 ft | 448 kts | 340° |
| 2026-04-12 11:18 | 41.27672 | 116.49540 | 20130 ft | 449 kts | 333° |
| 2026-04-12 11:18 | 41.30435 | 116.47581 | 20225 ft | 449 kts | 330° |
| 2026-04-12 11:19 | 41.33149 | 116.45489 | 20318 ft | 450 kts | 329° |
| 2026-04-12 11:19 | 41.35803 | 116.43364 | 20405 ft | 451 kts | 328° |
| 2026-04-12 11:19 | 41.38485 | 116.41190 | 20495 ft | 451 kts | 328° |
| 2026-04-12 11:19 | 41.41180 | 116.39009 | 20583 ft | 452 kts | 328° |
| 2026-04-12 11:20 | 41.43881 | 116.36835 | 20669 ft | 453 kts | 328° |
| 2026-04-12 11:20 | 41.46561 | 116.34690 | 20750 ft | 454 kts | 329° |
| 2026-04-12 11:20 | 41.49271 | 116.32530 | 20830 ft | 454 kts | 329° |
| 2026-04-12 11:20 | 41.51990 | 116.30367 | 20909 ft | 455 kts | 329° |
| 2026-04-12 11:21 | 41.54719 | 116.28198 | 20985 ft | 455 kts | 329° |
| 2026-04-12 11:21 | 41.57441 | 116.26032 | 21061 ft | 456 kts | 329° |
| 2026-04-12 11:21 | 41.60171 | 116.23858 | 21135 ft | 457 kts | 329° |
| 2026-04-12 11:21 | 41.62900 | 116.21682 | 21207 ft | 457 kts | 329° |
| 2026-04-12 11:22 | 41.65645 | 116.19490 | 21275 ft | 458 kts | 329° |
| 2026-04-12 11:22 | 41.68377 | 116.17305 | 21343 ft | 458 kts | 329° |
| 2026-04-12 11:22 | 41.71079 | 116.15143 | 21409 ft | 459 kts | 329° |
| 2026-04-12 11:22 | 41.73828 | 116.12940 | 21474 ft | 459 kts | 329° |
| 2026-04-12 11:23 | 41.76582 | 116.10732 | 21537 ft | 460 kts | 329° |
| 2026-04-12 11:23 | 41.79329 | 116.08527 | 21599 ft | 460 kts | 328° |
| 2026-04-12 11:23 | 41.82079 | 116.06317 | 21661 ft | 461 kts | 328° |
| 2026-04-12 11:23 | 41.84799 | 116.04129 | 21721 ft | 461 kts | 328° |
| 2026-04-12 11:24 | 41.87558 | 116.01907 | 21780 ft | 462 kts | 328° |
| 2026-04-12 11:24 | 41.90319 | 115.99682 | 21837 ft | 462 kts | 328° |
| 2026-04-12 11:24 | 41.93084 | 115.97452 | 21893 ft | 463 kts | 328° |
| 2026-04-12 11:24 | 41.95847 | 115.95220 | 21948 ft | 463 kts | 328° |
| 2026-04-12 11:25 | 41.98587 | 115.92931 | 21999 ft | 463 kts | 326° |
| 2026-04-12 11:25 | 42.01230 | 115.90527 | 22051 ft | 464 kts | 324° |
| 2026-04-12 11:25 | 42.03868 | 115.88028 | 22103 ft | 464 kts | 324° |
| 2026-04-12 11:25 | 42.06512 | 115.85500 | 22153 ft | 465 kts | 324° |
| 2026-04-12 11:26 | 42.09157 | 115.82981 | 22202 ft | 465 kts | 324° |
| 2026-04-12 11:26 | 42.11812 | 115.80473 | 22251 ft | 465 kts | 324° |
| 2026-04-12 11:26 | 42.14437 | 115.78012 | 22300 ft | 466 kts | 325° |
| 2026-04-12 11:26 | 42.17104 | 115.75524 | 22346 ft | 466 kts | 325° |
| 2026-04-12 11:27 | 42.19770 | 115.73043 | 22392 ft | 466 kts | 325° |
| 2026-04-12 11:27 | 42.22448 | 115.70551 | 22436 ft | 467 kts | 325° |
| 2026-04-12 11:27 | 42.24973 | 115.68201 | 22477 ft | 467 kts | 325° |
| 2026-04-12 11:27 | 42.27684 | 115.65678 | 22521 ft | 467 kts | 325° |
| 2026-04-12 11:28 | 42.30259 | 115.63280 | 22563 ft | 468 kts | 325° |
| 2026-04-12 11:28 | 42.32939 | 115.60776 | 22604 ft | 468 kts | 325° |
| 2026-04-12 11:28 | 42.35621 | 115.58264 | 22644 ft | 468 kts | 325° |
| 2026-04-12 11:28 | 42.38301 | 115.55751 | 22684 ft | 469 kts | 325° |
| 2026-04-12 11:29 | 42.40981 | 115.53236 | 22721 ft | 469 kts | 325° |
| 2026-04-12 11:29 | 42.43663 | 115.50716 | 22757 ft | 469 kts | 325° |
| 2026-04-12 11:29 | 42.46353 | 115.48189 | 22793 ft | 470 kts | 325° |
| 2026-04-12 11:29 | 42.49047 | 115.45654 | 22829 ft | 470 kts | 325° |
| 2026-04-12 11:30 | 42.51704 | 115.43152 | 22863 ft | 470 kts | 325° |
| 2026-04-12 11:30 | 42.54397 | 115.40614 | 22897 ft | 471 kts | 324° |
| 2026-04-12 11:30 | 42.57085 | 115.38078 | 22931 ft | 471 kts | 324° |
| 2026-04-12 11:30 | 42.59772 | 115.35539 | 22963 ft | 471 kts | 324° |
| 2026-04-12 11:31 | 42.61562 | 115.33847 | 22984 ft | 471 kts | 324° |
| 2026-04-12 11:31 | 42.65140 | 115.30461 | 23027 ft | 472 kts | 324° |
| 2026-04-12 11:31 | 42.66964 | 115.28732 | 23048 ft | 472 kts | 324° |
| 2026-04-12 11:31 | 42.69626 | 115.26208 | 23078 ft | 472 kts | 324° |
| 2026-04-12 11:32 | 42.72319 | 115.23651 | 23107 ft | 472 kts | 324° |
| 2026-04-12 11:32 | 42.75017 | 115.21086 | 23136 ft | 472 kts | 324° |
| 2026-04-12 11:32 | 42.77719 | 115.18516 | 23165 ft | 473 kts | 324° |
| 2026-04-12 11:32 | 42.80427 | 115.15936 | 23192 ft | 473 kts | 324° |
| 2026-04-12 11:33 | 42.83094 | 115.13394 | 23218 ft | 473 kts | 324° |
| 2026-04-12 11:33 | 42.85799 | 115.10812 | 23244 ft | 473 kts | 324° |
| 2026-04-12 11:33 | 42.88502 | 115.08228 | 23269 ft | 473 kts | 324° |
| 2026-04-12 11:33 | 42.91172 | 115.05674 | 23294 ft | 474 kts | 324° |
| 2026-04-12 11:34 | 42.93868 | 115.03092 | 23318 ft | 474 kts | 324° |
| 2026-04-12 11:34 | 42.96577 | 115.00495 | 23343 ft | 474 kts | 324° |
| 2026-04-12 11:34 | 42.99274 | 114.97907 | 23366 ft | 474 kts | 324° |
| 2026-04-12 11:34 | 43.01984 | 114.95303 | 23389 ft | 474 kts | 324° |
| 2026-04-12 11:35 | 43.04681 | 114.92709 | 23411 ft | 475 kts | 324° |
| 2026-04-12 11:35 | 43.07385 | 114.90105 | 23432 ft | 475 kts | 324° |
| 2026-04-12 11:35 | 43.10085 | 114.87503 | 23453 ft | 475 kts | 324° |
| 2026-04-12 11:35 | 43.12790 | 114.84903 | 23474 ft | 475 kts | 325° |
| 2026-04-12 11:36 | 43.15490 | 114.82357 | 23494 ft | 475 kts | 325° |
| 2026-04-12 11:36 | 43.18230 | 114.79803 | 23513 ft | 475 kts | 325° |
| 2026-04-12 11:36 | 43.20978 | 114.77248 | 23533 ft | 476 kts | 325° |
| 2026-04-12 11:36 | 43.23684 | 114.74730 | 23551 ft | 476 kts | 325° |
| 2026-04-12 11:37 | 43.26419 | 114.72176 | 23569 ft | 476 kts | 325° |
| 2026-04-12 11:37 | 43.29166 | 114.69604 | 23587 ft | 476 kts | 325° |
| 2026-04-12 11:37 | 43.31907 | 114.67030 | 23606 ft | 476 kts | 325° |
| 2026-04-12 11:37 | 43.34641 | 114.64458 | 23623 ft | 476 kts | 325° |
| 2026-04-12 11:38 | 43.37377 | 114.61880 | 23640 ft | 476 kts | 325° |
| 2026-04-12 11:38 | 43.40115 | 114.59296 | 23657 ft | 477 kts | 325° |
| 2026-04-12 11:38 | 43.42819 | 114.56742 | 23672 ft | 477 kts | 325° |
| 2026-04-12 11:38 | 43.45561 | 114.54150 | 23688 ft | 477 kts | 325° |
| 2026-04-12 11:39 | 43.48300 | 114.51557 | 23704 ft | 477 kts | 325° |
| 2026-04-12 11:39 | 43.51035 | 114.48965 | 23719 ft | 477 kts | 325° |
| 2026-04-12 11:39 | 43.53776 | 114.46365 | 23733 ft | 477 kts | 325° |
| 2026-04-12 11:39 | 43.56479 | 114.43798 | 23747 ft | 477 kts | 325° |
| 2026-04-12 11:40 | 43.59221 | 114.41191 | 23761 ft | 477 kts | 325° |
| 2026-04-12 11:40 | 43.61959 | 114.38585 | 23775 ft | 477 kts | 325° |
| 2026-04-12 11:40 | 43.64697 | 114.35977 | 23788 ft | 478 kts | 325° |
| 2026-04-12 11:40 | 43.67438 | 114.33362 | 23801 ft | 478 kts | 325° |
| 2026-04-12 11:41 | 43.70141 | 114.30781 | 23813 ft | 478 kts | 325° |
| 2026-04-12 11:41 | 43.72881 | 114.28161 | 23825 ft | 478 kts | 325° |
| 2026-04-12 11:41 | 43.75621 | 114.25539 | 23837 ft | 478 kts | 325° |
| 2026-04-12 11:41 | 43.78354 | 114.22920 | 23849 ft | 478 kts | 325° |
| 2026-04-12 11:42 | 43.81092 | 114.20294 | 23860 ft | 478 kts | 325° |
| 2026-04-12 11:42 | 43.83803 | 114.17690 | 23871 ft | 478 kts | 325° |
| 2026-04-12 11:42 | 43.86541 | 114.15057 | 23882 ft | 478 kts | 325° |
| 2026-04-12 11:43 | 43.92024 | 114.09776 | 23903 ft | 478 kts | 325° |
| 2026-04-12 11:43 | 43.94759 | 114.07138 | 23914 ft | 478 kts | 324° |
| 2026-04-12 11:43 | 43.97453 | 114.04535 | 23923 ft | 478 kts | 324° |
| 2026-04-12 11:43 | 44.00184 | 114.01895 | 23933 ft | 479 kts | 324° |
| 2026-04-12 11:44 | 44.02920 | 113.99246 | 23942 ft | 479 kts | 324° |
| 2026-04-12 11:44 | 44.05664 | 113.96586 | 23952 ft | 479 kts | 324° |
| 2026-04-12 11:44 | 44.08370 | 113.93961 | 23960 ft | 479 kts | 324° |
| 2026-04-12 11:44 | 44.11106 | 113.91304 | 23969 ft | 479 kts | 324° |
| 2026-04-12 11:45 | 44.13848 | 113.88636 | 23978 ft | 479 kts | 324° |
| 2026-04-12 11:45 | 44.16595 | 113.85962 | 23986 ft | 479 kts | 324° |
| 2026-04-12 11:45 | 44.19299 | 113.83326 | 23994 ft | 479 kts | 324° |
| 2026-04-12 11:45 | 44.22034 | 113.80657 | 24002 ft | 479 kts | 324° |
| 2026-04-12 11:46 | 44.24768 | 113.77986 | 24010 ft | 479 kts | 324° |
| 2026-04-12 11:46 | 44.27500 | 113.75313 | 24018 ft | 479 kts | 324° |
| 2026-04-12 11:46 | 44.30230 | 113.72640 | 24025 ft | 479 kts | 324° |
| 2026-04-12 11:46 | 44.32927 | 113.69996 | 24033 ft | 479 kts | 324° |
| 2026-04-12 11:47 | 44.35657 | 113.67316 | 24040 ft | 479 kts | 324° |
| 2026-04-12 11:47 | 44.38391 | 113.64629 | 24047 ft | 479 kts | 324° |
| 2026-04-12 11:47 | 44.41126 | 113.61939 | 24055 ft | 479 kts | 324° |
| 2026-04-12 11:47 | 44.43853 | 113.59253 | 24115 ft | 478 kts | 324° |
| 2026-04-12 11:48 | 44.46578 | 113.56566 | 24091 ft | 479 kts | 324° |